Time;durP1;ratioP1;P1;durP2;ratioP2;P2;SDS_P1;SDS_P2;PMS_P1;PMS_P2;Temp;Humidity;BMP_temperature;BMP_pressure;BME280_temperature;BME280_humidity;BME280_pressure;Samples;Min_cycle;Max_cycle;Signal;HPM_P1;HPM_P2
2022/03/26 00:02:18;;;;;;;41.07;36.93;;;;;;;;;;4976867;28;20447;-89
2022/03/26 00:04:45;;;;;;;39.33;35.70;;;;;;;;;;4976504;28;20813;-88
2022/03/26 00:07:13;;;;;;;39.57;35.87;;;;;;;;;;4977020;28;20451;-89
2022/03/26 00:09:40;;;;;;;40.43;36.10;;;;;;;;;;4976916;28;20427;-88
2022/03/26 00:12:10;;;;;;;40.67;36.67;;;;;;;;;;4976885;28;20413;-87
2022/03/26 00:14:38;;;;;;;39.40;35.60;;;;;;;;;;4959137;28;20443;-89
2022/03/26 00:17:06;;;;;;;38.00;34.60;;;;;;;;;;4976638;28;20430;-89
2022/03/26 00:19:33;;;;;;;36.83;33.17;;;;;;;;;;4976128;28;20531;-88
2022/03/26 00:22:00;;;;;;;38.47;34.93;;;;;;;;;;4976769;28;20443;-88
2022/03/26 00:24:28;;;;;;;38.77;35.27;;;;;;;;;;4976402;28;20439;-88
2022/03/26 00:26:55;;;;;;;37.67;34.37;;;;;;;;;;4959228;28;20451;-88
2022/03/26 00:29:24;;;;;;;36.07;32.87;;;;;;;;;;4976460;28;20410;-89
2022/03/26 00:31:51;;;;;;;38.63;34.70;;;;;;;;;;4976162;28;20473;-88
2022/03/26 00:34:19;;;;;;;36.43;32.47;;;;;;;;;;4976164;28;20451;-88
2022/03/26 00:36:46;;;;;;;35.13;31.87;;;;;;;;;;4976290;28;20537;-87
2022/03/26 00:39:13;;;;;;;37.83;34.10;;;;;;;;;;4975818;28;20459;-88
2022/03/26 00:41:41;;;;;;;35.50;32.17;;;;;;;;;;4975626;28;20983;-88
2022/03/26 00:44:08;;;;;;;35.73;32.30;;;;;;;;;;4975861;28;20794;-88
2022/03/26 00:46:37;;;;;;;34.50;31.47;;;;;;;;;;4976035;28;20446;-88
2022/03/26 00:49:05;;;;;;;36.00;32.83;;;;;;;;;;4975598;28;20456;-88
2022/03/26 00:51:32;;;;;;;37.90;33.87;;;;;;;;;;4975830;28;20446;-88
2022/03/26 00:54:00;;;;;;;37.07;33.27;;;;;;;;;;4975446;28;20443;-88
2022/03/26 00:56:27;;;;;;;37.60;33.77;;;;;;;;;;4975552;28;20482;-88
2022/03/26 00:58:54;;;;;;;35.43;32.33;;;;;;;;;;4975717;28;20443;-88
2022/03/26 01:01:22;;;;;;;38.63;34.60;;;;;;;;;;4975739;28;20436;-89
2022/03/26 01:03:51;;;;;;;39.00;35.30;;;;;;;;;;4975832;28;20431;-88
2022/03/26 01:06:19;;;;;;;41.30;37.50;;;;;;;;;;4975513;28;20454;-87
2022/03/26 01:08:47;;;;;;;39.53;35.83;;;;;;;;;;4975699;28;20932;-87
2022/03/26 01:11:15;;;;;;;41.57;36.87;;;;;;;;;;4975447;28;20443;-89
2022/03/26 01:13:42;;;;;;;39.70;35.57;;;;;;;;;;4975577;28;20505;-88
2022/03/26 01:16:10;;;;;;;39.53;35.70;;;;;;;;;;4975407;28;20990;-88
2022/03/26 01:18:37;;;;;;;40.30;36.00;;;;;;;;;;4975500;28;20797;-89
2022/03/26 01:21:07;;;;;;;39.20;35.47;;;;;;;;;;4975141;28;20943;-88
2022/03/26 01:23:35;;;;;;;42.17;38.27;;;;;;;;;;4975264;28;20821;-89
2022/03/26 01:26:03;;;;;;;39.10;35.30;;;;;;;;;;4975168;28;20980;-88
2022/03/26 01:28:30;;;;;;;41.20;36.00;;;;;;;;;;4975510;28;20422;-88
2022/03/26 01:30:59;;;;;;;38.27;34.57;;;;;;;;;;4975535;28;20466;-89
2022/03/26 01:33:26;;;;;;;42.07;35.80;;;;;;;;;;4975850;28;20422;-89
2022/03/26 01:35:54;;;;;;;40.13;35.87;;;;;;;;;;4975467;28;20479;-88
2022/03/26 01:38:22;;;;;;;45.00;37.83;;;;;;;;;;4975111;28;20406;-88
2022/03/26 01:40:50;;;;;;;39.23;35.40;;;;;;;;;;4975481;28;20853;-88
2022/03/26 01:43:17;;;;;;;39.87;35.77;;;;;;;;;;4975033;28;20431;-89
2022/03/26 01:45:45;;;;;;;39.67;35.73;;;;;;;;;;4975181;28;20554;-88
2022/03/26 01:48:12;;;;;;;40.47;36.23;;;;;;;;;;4977112;28;20549;-88
2022/03/26 01:50:42;;;;;;;40.27;36.17;;;;;;;;;;4975059;28;20494;-88
2022/03/26 01:53:09;;;;;;;40.53;36.67;;;;;;;;;;4975064;28;20944;-87
2022/03/26 01:55:38;;;;;;;41.30;37.20;;;;;;;;;;4960282;28;20497;-88
2022/03/26 01:58:06;;;;;;;39.43;35.63;;;;;;;;;;4978476;28;20481;-88
2022/03/26 02:00:34;;;;;;;41.73;37.37;;;;;;;;;;4961513;28;20889;-89
2022/03/26 02:03:02;;;;;;;40.97;36.50;;;;;;;;;;4978962;28;20771;-88
2022/03/26 02:05:30;;;;;;;39.67;35.67;;;;;;;;;;4962076;28;20848;-88
2022/03/26 02:07:57;;;;;;;40.10;35.80;;;;;;;;;;4962369;28;20435;-88
2022/03/26 02:10:24;;;;;;;39.73;35.80;;;;;;;;;;4979994;28;20466;-87
2022/03/26 02:12:53;;;;;;;38.97;34.87;;;;;;;;;;4983516;28;20810;-88
2022/03/26 02:15:21;;;;;;;40.60;36.10;;;;;;;;;;4982432;28;20476;-88
2022/03/26 02:17:48;;;;;;;39.90;35.70;;;;;;;;;;4981948;28;20433;-88
2022/03/26 02:20:18;;;;;;;41.00;36.87;;;;;;;;;;4980671;28;20465;-89
2022/03/26 02:22:45;;;;;;;40.43;36.37;;;;;;;;;;4980445;28;20542;-88
2022/03/26 02:25:13;;;;;;;38.63;34.77;;;;;;;;;;4980645;28;20422;-88
2022/03/26 02:27:40;;;;;;;41.00;37.03;;;;;;;;;;4979481;28;20959;-87
2022/03/26 02:30:08;;;;;;;39.13;35.60;;;;;;;;;;4980199;28;20478;-88
2022/03/26 02:32:37;;;;;;;40.17;36.40;;;;;;;;;;4980376;28;20433;-88
2022/03/26 02:35:05;;;;;;;39.10;35.30;;;;;;;;;;4980334;28;20427;-88
2022/03/26 02:37:34;;;;;;;40.50;36.10;;;;;;;;;;4980191;28;20492;-90
2022/03/26 02:40:04;;;;;;;41.57;36.80;;;;;;;;;;4980047;28;20447;-88
2022/03/26 02:42:32;;;;;;;40.70;36.30;;;;;;;;;;4980297;28;20847;-89
2022/03/26 02:44:59;;;;;;;39.37;35.43;;;;;;;;;;4980922;28;20434;-90
2022/03/26 02:47:26;;;;;;;39.93;36.03;;;;;;;;;;4980873;28;20578;-89
2022/03/26 02:49:54;;;;;;;41.13;36.50;;;;;;;;;;4982351;28;20596;-89
2022/03/26 02:52:23;;;;;;;40.20;36.20;;;;;;;;;;4980083;28;20467;-88
2022/03/26 02:54:52;;;;;;;41.40;37.27;;;;;;;;;;4979458;28;20478;-88
2022/03/26 02:57:19;;;;;;;41.17;36.93;;;;;;;;;;4978585;28;20974;-88
2022/03/26 02:59:46;;;;;;;42.10;38.00;;;;;;;;;;4983651;28;20422;-87
2022/03/26 03:02:14;;;;;;;40.93;36.90;;;;;;;;;;4979958;28;20796;-88
2022/03/26 03:04:41;;;;;;;39.33;35.50;;;;;;;;;;4978148;28;20797;-88
2022/03/26 03:07:09;;;;;;;39.20;35.20;;;;;;;;;;4961060;28;20450;-88
2022/03/26 03:09:36;;;;;;;40.33;36.10;;;;;;;;;;4979193;28;20445;-88
2022/03/26 03:12:06;;;;;;;40.00;35.77;;;;;;;;;;4978074;28;20454;-87
2022/03/26 03:14:37;;;;;;;40.37;36.50;;;;;;;;;;4977792;28;20451;-88
2022/03/26 03:17:05;;;;;;;38.25;34.60;;;;;;;;;;4977627;28;20541;-87
2022/03/26 03:19:32;;;;;;;38.90;34.83;;;;;;;;;;4978631;28;20208;-88
2022/03/26 03:22:00;;;;;;;43.90;39.20;;;;;;;;;;4977841;28;20455;-88
2022/03/26 03:24:27;;;;;;;40.03;36.17;;;;;;;;;;4960260;28;20261;-88
2022/03/26 03:26:55;;;;;;;41.27;36.97;;;;;;;;;;4977785;28;20502;-88
2022/03/26 03:29:24;;;;;;;41.58;37.05;;;;;;;;;;4977356;28;20436;-88
2022/03/26 03:31:51;;;;;;;37.63;34.03;;;;;;;;;;4977476;28;20246;-88
2022/03/26 03:34:19;;;;;;;37.38;33.63;;;;;;;;;;4977349;28;20439;-88
2022/03/26 03:36:46;;;;;;;39.33;35.13;;;;;;;;;;4977468;28;20215;-89
2022/03/26 03:39:14;;;;;;;39.00;35.03;;;;;;;;;;4977154;28;20588;-88
2022/03/26 03:41:41;;;;;;;37.30;33.70;;;;;;;;;;4977419;28;20451;-89
2022/03/26 03:44:10;;;;;;;40.53;36.33;;;;;;;;;;4977197;28;21160;-88
2022/03/26 03:46:38;;;;;;;39.65;35.65;;;;;;;;;;4977583;28;20458;-87
2022/03/26 03:49:06;;;;;;;38.63;34.78;;;;;;;;;;4959880;28;20235;-88
2022/03/26 03:51:33;;;;;;;37.90;34.20;;;;;;;;;;4976960;28;20188;-88
2022/03/26 03:54:01;;;;;;;40.22;35.95;;;;;;;;;;4977191;28;20226;-91
2022/03/26 03:56:28;;;;;;;45.03;37.17;;;;;;;;;;4976593;28;20226;-89
2022/03/26 03:58:56;;;;;;;40.55;35.10;;;;;;;;;;4977914;28;20516;-88
2022/03/26 04:01:23;;;;;;;42.93;37.37;;;;;;;;;;4959450;28;20669;-88
2022/03/26 04:03:52;;;;;;;40.15;36.08;;;;;;;;;;4976824;28;20417;-88
2022/03/26 04:06:19;;;;;;;41.47;36.83;;;;;;;;;;4977052;28;20645;-88
2022/03/26 04:08:47;;;;;;;39.55;35.35;;;;;;;;;;4977367;28;20420;-88
2022/03/26 04:11:14;;;;;;;41.70;36.88;;;;;;;;;;4959812;28;20211;-88
2022/03/26 04:13:42;;;;;;;44.93;40.33;;;;;;;;;;4976330;28;20201;-88
2022/03/26 04:16:09;;;;;;;41.67;36.80;;;;;;;;;;4976578;28;20491;-88
2022/03/26 04:18:37;;;;;;;41.97;37.58;;;;;;;;;;4975686;28;20214;-88
2022/03/26 04:21:06;;;;;;;41.63;36.50;;;;;;;;;;4976874;28;20660;-88
2022/03/26 04:23:33;;;;;;;41.93;36.53;;;;;;;;;;4959451;28;20503;-88
2022/03/26 04:26:01;;;;;;;39.23;35.33;;;;;;;;;;4977001;28;20439;-87
2022/03/26 04:28:29;;;;;;;40.83;36.60;;;;;;;;;;4977298;28;20446;-88
2022/03/26 04:30:56;;;;;;;40.90;36.80;;;;;;;;;;4977687;28;20475;-88
2022/03/26 04:33:24;;;;;;;43.60;35.57;;;;;;;;;;4977102;28;20199;-88
2022/03/26 04:35:51;;;;;;;40.28;36.03;;;;;;;;;;4975951;28;20446;-88
2022/03/26 04:38:20;;;;;;;45.43;37.57;;;;;;;;;;4975823;28;20227;-88
2022/03/26 04:40:50;;;;;;;40.58;36.63;;;;;;;;;;4976050;28;20447;-88
2022/03/26 04:43:18;;;;;;;44.97;39.28;;;;;;;;;;4976070;28;20247;-88
2022/03/26 04:45:45;;;;;;;45.67;37.67;;;;;;;;;;4975754;28;20219;-88
2022/03/26 04:48:13;;;;;;;43.25;38.95;;;;;;;;;;4975689;28;20239;-88
2022/03/26 04:50:41;;;;;;;40.67;36.67;;;;;;;;;;4958670;28;20258;-88
2022/03/26 04:53:09;;;;;;;42.80;38.20;;;;;;;;;;4976029;28;20445;-88
2022/03/26 04:55:37;;;;;;;42.17;37.67;;;;;;;;;;4975974;28;20243;-88
2022/03/26 04:58:05;;;;;;;45.73;39.83;;;;;;;;;;4975581;28;20498;-88
2022/03/26 05:00:32;;;;;;;40.92;36.83;;;;;;;;;;4958661;28;20442;-88
2022/03/26 05:03:00;;;;;;;40.65;36.45;;;;;;;;;;4976045;28;20196;-88
2022/03/26 05:05:27;;;;;;;40.53;36.13;;;;;;;;;;4977062;28;20246;-88
2022/03/26 05:07:58;;;;;;;45.20;36.85;;;;;;;;;;4976502;28;20474;-88
2022/03/26 05:10:27;;;;;;;41.42;37.05;;;;;;;;;;4976800;28;20199;-88
2022/03/26 05:12:56;;;;;;;42.05;36.63;;;;;;;;;;4976652;28;20203;-88
2022/03/26 05:15:26;;;;;;;41.58;37.47;;;;;;;;;;4976529;28;20539;-88
2022/03/26 05:17:55;;;;;;;41.88;37.30;;;;;;;;;;4976379;28;20215;-88
2022/03/26 05:20:23;;;;;;;43.53;38.83;;;;;;;;;;4977650;28;20217;-88
2022/03/26 05:22:50;;;;;;;42.20;37.70;;;;;;;;;;4959536;28;20432;-88
2022/03/26 05:25:18;;;;;;;41.40;37.35;;;;;;;;;;4976143;28;20447;-87
2022/03/26 05:27:46;;;;;;;41.53;37.13;;;;;;;;;;4958969;28;20207;-86
2022/03/26 05:30:15;;;;;;;44.17;38.17;;;;;;;;;;4976259;28;20207;-88
2022/03/26 05:32:43;;;;;;;38.85;35.03;;;;;;;;;;4976065;28;20195;-86
2022/03/26 05:35:13;;;;;;;40.92;36.53;;;;;;;;;;4975919;28;20199;-84
2022/03/26 05:37:41;;;;;;;41.13;37.00;;;;;;;;;;4958608;28;20286;-88
2022/03/26 05:40:09;;;;;;;47.53;37.15;;;;;;;;;;4976998;28;20196;-88
2022/03/26 05:42:36;;;;;;;41.05;36.60;;;;;;;;;;4977036;28;20728;-88
2022/03/26 05:45:04;;;;;;;41.30;37.15;;;;;;;;;;4976972;28;20561;-84
2022/03/26 05:47:33;;;;;;;41.47;37.30;;;;;;;;;;4958747;28;20321;-86
2022/03/26 05:50:00;;;;;;;39.90;35.70;;;;;;;;;;4977192;28;20206;-86
2022/03/26 05:52:29;;;;;;;42.20;36.63;;;;;;;;;;4984301;28;20188;-86
2022/03/26 05:54:56;;;;;;;45.75;36.92;;;;;;;;;;4978214;28;20302;-85
2022/03/26 05:57:24;;;;;;;41.53;37.08;;;;;;;;;;4975705;28;20610;-85
2022/03/26 05:59:51;;;;;;;48.17;38.67;;;;;;;;;;4975688;28;20266;-86
2022/03/26 06:02:21;;;;;;;42.15;37.95;;;;;;;;;;4976058;28;20199;-86
2022/03/26 06:04:50;;;;;;;39.83;36.03;;;;;;;;;;4958395;28;20210;-86
2022/03/26 06:07:17;;;;;;;44.95;38.72;;;;;;;;;;4975246;28;20203;-86
2022/03/26 06:09:45;;;;;;;43.33;35.80;;;;;;;;;;4974527;28;20200;-85
2022/03/26 06:12:12;;;;;;;43.35;37.17;;;;;;;;;;4974717;28;20810;-86
2022/03/26 06:14:39;;;;;;;40.90;36.50;;;;;;;;;;4974912;28;20192;-86
2022/03/26 06:17:07;;;;;;;43.55;37.20;;;;;;;;;;4974606;28;20212;-86
2022/03/26 06:19:34;;;;;;;42.05;37.03;;;;;;;;;;4957505;28;20727;-86
2022/03/26 06:22:03;;;;;;;42.07;37.63;;;;;;;;;;4974579;28;20203;-86
2022/03/26 06:24:31;;;;;;;40.73;36.30;;;;;;;;;;4957926;28;20458;-85
2022/03/26 06:26:58;;;;;;;45.38;37.85;;;;;;;;;;4974412;28;20441;-86
2022/03/26 06:29:26;;;;;;;43.20;38.70;;;;;;;;;;4974608;28;20191;-86
2022/03/26 06:31:54;;;;;;;42.00;37.60;;;;;;;;;;4974161;28;20239;-84
2022/03/26 06:34:24;;;;;;;45.42;40.70;;;;;;;;;;4974546;28;20196;-86
2022/03/26 06:36:51;;;;;;;45.20;40.40;;;;;;;;;;4974413;28;20242;-85
2022/03/26 06:39:20;;;;;;;46.10;41.50;;;;;;;;;;4974410;28;20207;-85
2022/03/26 06:41:48;;;;;;;43.97;39.58;;;;;;;;;;4976829;28;20194;-85
2022/03/26 06:44:15;;;;;;;46.13;41.13;;;;;;;;;;4978248;28;20241;-85
2022/03/26 06:46:42;;;;;;;44.40;38.95;;;;;;;;;;4977980;28;20638;-89
2022/03/26 06:49:10;;;;;;;46.17;39.80;;;;;;;;;;4977139;28;20231;-86
2022/03/26 06:51:38;;;;;;;48.60;43.20;;;;;;;;;;4960624;28;20255;-87
2022/03/26 06:54:05;;;;;;;51.63;45.73;;;;;;;;;;4977683;28;20478;-87
2022/03/26 06:56:35;;;;;;;50.22;44.60;;;;;;;;;;4977999;28;20451;-87
2022/03/26 06:59:02;;;;;;;54.05;44.80;;;;;;;;;;4977477;28;20278;-86
2022/03/26 07:01:30;;;;;;;54.70;43.97;;;;;;;;;;4979129;28;20192;-86
2022/03/26 07:03:58;;;;;;;50.50;45.00;;;;;;;;;;4978811;28;20956;-86
2022/03/26 07:06:25;;;;;;;59.67;46.33;;;;;;;;;;4978237;28;20439;-85
2022/03/26 07:08:53;;;;;;;51.60;46.00;;;;;;;;;;4978371;28;20199;-87
2022/03/26 07:11:21;;;;;;;54.70;47.50;;;;;;;;;;4978093;28;20203;-86
2022/03/26 07:13:50;;;;;;;52.00;44.80;;;;;;;;;;4978402;28;20455;-87
2022/03/26 07:16:18;;;;;;;56.27;48.60;;;;;;;;;;4978534;28;20942;-86
2022/03/26 07:18:46;;;;;;;52.93;45.80;;;;;;;;;;4977418;28;21007;-86
2022/03/26 07:21:13;;;;;;;55.63;48.20;;;;;;;;;;4977536;28;20429;-89
2022/03/26 07:23:40;;;;;;;52.67;46.27;;;;;;;;;;4976613;28;20532;-88
2022/03/26 07:26:08;;;;;;;56.77;46.30;;;;;;;;;;4978227;28;20513;-84
2022/03/26 07:28:35;;;;;;;54.33;48.00;;;;;;;;;;4978172;28;20817;-84
2022/03/26 07:31:05;;;;;;;56.43;45.63;;;;;;;;;;4977924;28;20443;-84
2022/03/26 07:33:32;;;;;;;52.13;46.43;;;;;;;;;;4977382;28;20463;-91
2022/03/26 07:35:59;;;;;;;57.40;45.70;;;;;;;;;;4982601;28;20439;-89
2022/03/26 07:38:27;;;;;;;57.90;47.30;;;;;;;;;;4979386;28;20486;-92
2022/03/26 07:40:57;;;;;;;56.33;46.90;;;;;;;;;;4961054;28;20873;-91
2022/03/26 07:43:24;;;;;;;49.83;43.93;;;;;;;;;;4978839;28;20449;-89
2022/03/26 07:45:51;;;;;;;57.97;47.30;;;;;;;;;;4977997;28;20506;-88
2022/03/26 07:48:20;;;;;;;51.07;45.57;;;;;;;;;;4977067;28;20871;-85
2022/03/26 07:50:49;;;;;;;50.80;45.50;;;;;;;;;;4976434;28;20952;-85
2022/03/26 07:53:17;;;;;;;51.93;43.50;;;;;;;;;;4976510;28;20418;-84
2022/03/26 07:55:44;;;;;;;50.93;44.50;;;;;;;;;;4977265;28;20466;-84
2022/03/26 07:58:12;;;;;;;63.47;46.37;;;;;;;;;;4976692;28;20877;-84
2022/03/26 08:00:39;;;;;;;55.50;46.53;;;;;;;;;;4976746;28;20441;-84
2022/03/26 08:03:08;;;;;;;51.63;45.10;;;;;;;;;;4981428;28;20473;-83
2022/03/26 08:05:37;;;;;;;50.53;45.23;;;;;;;;;;4979427;28;20502;-84
2022/03/26 08:08:05;;;;;;;49.83;43.97;;;;;;;;;;4982577;28;20463;-84
2022/03/26 08:10:32;;;;;;;50.00;44.30;;;;;;;;;;4978521;28;20508;-84
2022/03/26 08:13:00;;;;;;;51.97;44.27;;;;;;;;;;4977587;28;20442;-85
2022/03/26 08:15:27;;;;;;;49.97;44.10;;;;;;;;;;4976704;28;20468;-84
2022/03/26 08:17:54;;;;;;;51.80;44.17;;;;;;;;;;4976372;28;20494;-84
2022/03/26 08:20:22;;;;;;;50.70;42.40;;;;;;;;;;4977481;28;20435;-84
2022/03/26 08:22:50;;;;;;;49.20;43.90;;;;;;;;;;4979157;28;20422;-84
2022/03/26 08:26:19;;;;;;;49.10;41.47;;;;;;;;;;4977603;28;20886;-84
2022/03/26 08:28:10;;;;;;;53.30;44.00;;;;;;;;;;4981738;28;20428;-84
2022/03/26 08:30:37;;;;;;;47.17;42.10;;;;;;;;;;4977321;28;20495;-84
2022/03/26 08:33:05;;;;;;;50.70;43.70;;;;;;;;;;4976221;28;20443;-84
2022/03/26 08:35:33;;;;;;;49.17;41.60;;;;;;;;;;4976005;28;20801;-85
2022/03/26 08:38:02;;;;;;;49.33;44.20;;;;;;;;;;4976531;28;20481;-84
2022/03/26 08:40:29;;;;;;;50.03;43.77;;;;;;;;;;4975999;28;20444;-83
2022/03/26 08:42:58;;;;;;;50.77;45.23;;;;;;;;;;4976082;28;20462;-83
2022/03/26 08:45:26;;;;;;;52.33;43.30;;;;;;;;;;4976364;28;20459;-84
2022/03/26 08:47:53;;;;;;;51.00;45.40;;;;;;;;;;4975535;28;20453;-83
2022/03/26 08:50:21;;;;;;;49.70;42.80;;;;;;;;;;4975923;28;20447;-83
2022/03/26 08:52:48;;;;;;;49.93;44.37;;;;;;;;;;4976425;28;20463;-87
2022/03/26 08:55:17;;;;;;;48.30;43.30;;;;;;;;;;4976365;28;21010;-88
2022/03/26 08:57:44;;;;;;;50.53;45.13;;;;;;;;;;4975739;28;20486;-83
2022/03/26 09:00:13;;;;;;;53.13;47.00;;;;;;;;;;4975035;28;20424;-92
2022/03/26 09:02:40;;;;;;;52.63;43.10;;;;;;;;;;4975474;28;20420;-87
2022/03/26 09:05:08;;;;;;;49.73;44.50;;;;;;;;;;4975127;28;20421;-85
2022/03/26 09:07:36;;;;;;;50.53;43.93;;;;;;;;;;4975194;28;20451;-85
2022/03/26 09:10:03;;;;;;;54.67;44.13;;;;;;;;;;4974812;28;21026;-84
2022/03/26 09:12:32;;;;;;;48.40;41.63;;;;;;;;;;4975091;28;20470;-86
2022/03/26 09:15:00;;;;;;;48.53;43.43;;;;;;;;;;4975267;28;20479;-82
2022/03/26 09:17:27;;;;;;;47.00;41.40;;;;;;;;;;4976131;28;20466;-91
2022/03/26 09:19:55;;;;;;;48.50;43.30;;;;;;;;;;4976109;28;20437;-87
2022/03/26 09:22:23;;;;;;;51.33;44.83;;;;;;;;;;4977050;28;20425;-91
2022/03/26 09:24:51;;;;;;;50.80;44.20;;;;;;;;;;4975220;28;20475;-91
2022/03/26 09:27:19;;;;;;;47.20;42.17;;;;;;;;;;4976207;28;20505;-84
2022/03/26 09:29:48;;;;;;;47.00;42.20;;;;;;;;;;4957359;28;20440;-84
2022/03/26 09:32:15;;;;;;;50.70;41.50;;;;;;;;;;4975236;28;20432;-85
2022/03/26 09:34:43;;;;;;;48.60;43.20;;;;;;;;;;4974666;28;20772;-85
2022/03/26 09:37:12;;;;;;;46.03;41.13;;;;;;;;;;4974906;28;20815;-85
2022/03/26 09:39:39;;;;;;;48.43;41.07;;;;;;;;;;4975317;28;20516;-85
2022/03/26 09:42:09;;;;;;;46.50;41.00;;;;;;;;;;4974824;28;20414;-84
2022/03/26 09:44:37;;;;;;;47.93;41.43;;;;;;;;;;4957681;28;20500;-85
2022/03/26 09:47:07;;;;;;;46.17;41.40;;;;;;;;;;4974101;28;20417;-84
2022/03/26 09:49:35;;;;;;;42.90;38.37;;;;;;;;;;4974487;28;20425;-85
2022/03/26 09:52:05;;;;;;;44.80;40.03;;;;;;;;;;4974351;28;20439;-85
2022/03/26 09:54:33;;;;;;;46.10;40.43;;;;;;;;;;4974371;28;20869;-85
2022/03/26 09:57:00;;;;;;;47.40;42.70;;;;;;;;;;4956648;28;20516;-85
2022/03/26 09:59:28;;;;;;;43.87;39.17;;;;;;;;;;4974424;28;20494;-85
2022/03/26 10:01:55;;;;;;;43.37;38.90;;;;;;;;;;4974422;28;20779;-85
2022/03/26 10:04:25;;;;;;;46.10;41.10;;;;;;;;;;4974470;28;20449;-85
2022/03/26 10:06:53;;;;;;;43.13;38.50;;;;;;;;;;4974388;28;20451;-85
2022/03/26 10:09:27;;;;;;;44.57;39.70;;;;;;;;;;4974520;28;20425;-85
2022/03/26 10:12:01;;;;;;;44.80;39.90;;;;;;;;;;4974274;28;20437;-85
2022/03/26 10:14:39;;;;;;;45.97;41.13;;;;;;;;;;4957040;28;20476;-86
2022/03/26 10:17:14;;;;;;;40.37;36.20;;;;;;;;;;4960570;28;20442;-84
2022/03/26 10:19:59;;;;;;;38.20;34.50;;;;;;;;;;4973949;28;20851;-84
2022/03/26 10:22:27;;;;;;;42.07;37.87;;;;;;;;;;4978086;28;20421;-85
2022/03/26 10:24:55;;;;;;;30.13;27.63;;;;;;;;;;4977992;28;20489;-85
2022/03/26 10:27:23;;;;;;;34.30;31.37;;;;;;;;;;4977845;28;20413;-85
2022/03/26 10:29:51;;;;;;;30.23;27.63;;;;;;;;;;4977458;28;20443;-84
2022/03/26 10:32:39;;;;;;;29.13;26.77;;;;;;;;;;4977616;28;20417;-87
2022/03/26 10:35:22;;;;;;;29.60;27.30;;;;;;;;;;4977710;28;20947;-84
2022/03/26 10:37:55;;;;;;;31.10;28.90;;;;;;;;;;4974269;28;20418;-87
2022/03/26 10:40:24;;;;;;;29.40;27.00;;;;;;;;;;4977208;28;21039;-84
2022/03/26 10:42:59;;;;;;;29.83;27.47;;;;;;;;;;4977561;28;20446;-84
2022/03/26 10:45:27;;;;;;;30.03;27.60;;;;;;;;;;4977086;28;20413;-84
2022/03/26 10:47:55;;;;;;;29.70;27.30;;;;;;;;;;4976710;28;20492;-83
2022/03/26 10:50:22;;;;;;;29.23;26.80;;;;;;;;;;4977394;28;20454;-84
2022/03/26 10:52:54;;;;;;;31.60;28.97;;;;;;;;;;4976856;28;20409;-83
2022/03/26 10:55:22;;;;;;;29.50;27.10;;;;;;;;;;4976759;28;20456;-84
2022/03/26 10:57:50;;;;;;;31.03;28.53;;;;;;;;;;4976659;28;20459;-84
2022/03/26 11:00:18;;;;;;;31.07;28.27;;;;;;;;;;4977029;28;20846;-84
2022/03/26 11:02:45;;;;;;;29.60;27.30;;;;;;;;;;4976767;28;20414;-84
2022/03/26 11:05:14;;;;;;;30.83;28.43;;;;;;;;;;4959279;28;21220;-83
2022/03/26 11:07:42;;;;;;;32.10;29.43;;;;;;;;;;4976772;28;20836;-83
2022/03/26 11:10:12;;;;;;;31.30;29.00;;;;;;;;;;4976581;28;20477;-83
2022/03/26 11:12:43;;;;;;;32.27;29.40;;;;;;;;;;4976560;28;20912;-83
2022/03/26 11:15:12;;;;;;;34.00;31.10;;;;;;;;;;4976804;28;20801;-84
2022/03/26 11:17:45;;;;;;;32.83;30.27;;;;;;;;;;4976662;28;20534;-83
2022/03/26 11:20:19;;;;;;;33.97;31.07;;;;;;;;;;4976555;28;20545;-84
2022/03/26 11:22:53;;;;;;;36.03;33.00;;;;;;;;;;4976283;28;20450;-83
2022/03/26 11:25:31;;;;;;;36.03;32.93;;;;;;;;;;4976519;28;20462;-84
2022/03/26 11:28:07;;;;;;;34.57;31.80;;;;;;;;;;4975677;28;20482;-83
2022/03/26 11:30:40;;;;;;;35.50;32.43;;;;;;;;;;4976051;28;20439;-84
2022/03/26 11:33:11;;;;;;;35.30;32.07;;;;;;;;;;4976198;28;20853;-84
2022/03/26 11:35:52;;;;;;;34.57;31.67;;;;;;;;;;4976084;28;20501;-83
2022/03/26 11:38:20;;;;;;;34.90;31.47;;;;;;;;;;4975988;28;20447;-83
2022/03/26 11:40:53;;;;;;;35.23;31.97;;;;;;;;;;4975998;28;20414;-84
2022/03/26 11:43:21;;;;;;;34.17;31.47;;;;;;;;;;4976069;28;20417;-83
2022/03/26 11:51:23;;;;;;;35.07;31.97;;;;;;;;;;4976052;28;20430;-84
2022/03/26 11:53:52;;;;;;;35.37;32.37;;;;;;;;;;4976223;28;20479;-83
2022/03/26 11:56:25;;;;;;;33.33;30.63;;;;;;;;;;4976032;28;20443;-82
2022/03/26 11:59:05;;;;;;;35.50;32.70;;;;;;;;;;4976303;28;20486;-84
2022/03/26 12:01:36;;;;;;;34.00;31.40;;;;;;;;;;4975887;28;20435;-84
2022/03/26 12:04:10;;;;;;;32.90;30.30;;;;;;;;;;4975923;28;20473;-84
2022/03/26 12:06:42;;;;;;;35.40;32.53;;;;;;;;;;4975966;28;20526;-84
2022/03/26 12:09:11;;;;;;;34.50;31.70;;;;;;;;;;4975553;28;20458;-84
2022/03/26 12:12:00;;;;;;;36.27;33.27;;;;;;;;;;4975526;28;20858;-83
2022/03/26 12:14:27;;;;;;;38.37;34.87;;;;;;;;;;4975242;28;20469;-84
2022/03/26 12:16:56;;;;;;;33.00;30.53;;;;;;;;;;4975377;28;20471;-83
2022/03/26 12:19:39;;;;;;;33.70;30.23;;;;;;;;;;4975073;28;20492;-82
2022/03/26 12:22:20;;;;;;;35.10;32.30;;;;;;;;;;4975556;28;20431;-84
2022/03/26 12:24:47;;;;;;;29.27;27.27;;;;;;;;;;4958476;28;20458;-84
2022/03/26 12:27:17;;;;;;;29.77;27.37;;;;;;;;;;4975218;28;20443;-84
2022/03/26 12:29:44;;;;;;;30.33;27.63;;;;;;;;;;4975501;28;20462;-84
2022/03/26 12:32:12;;;;;;;30.27;28.10;;;;;;;;;;4975114;28;20417;-84
2022/03/26 12:34:55;;;;;;;29.43;27.23;;;;;;;;;;4975378;28;20801;-84
2022/03/26 12:37:23;;;;;;;31.13;28.73;;;;;;;;;;4975268;28;20424;-84
2022/03/26 12:39:51;;;;;;;31.67;29.27;;;;;;;;;;4974523;28;20844;-84
2022/03/26 12:42:21;;;;;;;30.37;28.20;;;;;;;;;;4958184;28;20885;-84
2022/03/26 12:44:49;;;;;;;32.00;29.50;;;;;;;;;;4957784;28;20490;-84
2022/03/26 12:47:17;;;;;;;31.40;28.90;;;;;;;;;;4974982;28;20421;-84
2022/03/26 12:49:47;;;;;;;31.40;29.10;;;;;;;;;;4975270;28;20503;-84
2022/03/26 12:52:17;;;;;;;32.70;30.20;;;;;;;;;;4975050;28;20533;-85
2022/03/26 12:54:45;;;;;;;32.67;30.13;;;;;;;;;;4974884;28;20517;-84
2022/03/26 12:57:12;;;;;;;32.30;29.90;;;;;;;;;;4974897;28;20933;-84
2022/03/26 12:59:40;;;;;;;33.43;30.77;;;;;;;;;;4974995;28;20461;-84
2022/03/26 13:02:11;;;;;;;30.47;28.03;;;;;;;;;;4974720;28;20441;-84
2022/03/26 13:04:39;;;;;;;34.40;31.57;;;;;;;;;;4975226;28;21070;-83
2022/03/26 13:07:07;;;;;;;32.33;29.77;;;;;;;;;;4975882;28;20961;-83
2022/03/26 13:09:34;;;;;;;33.97;31.40;;;;;;;;;;4975449;28;20785;-83
2022/03/26 13:12:02;;;;;;;32.53;30.30;;;;;;;;;;4976296;28;20425;-84
2022/03/26 13:14:29;;;;;;;33.53;30.83;;;;;;;;;;4976005;28;20450;-83
2022/03/26 13:17:00;;;;;;;32.37;29.87;;;;;;;;;;4976531;28;20454;-84
2022/03/26 13:19:33;;;;;;;34.10;31.50;;;;;;;;;;4976529;28;20475;-84
2022/03/26 13:22:03;;;;;;;36.00;33.03;;;;;;;;;;4975636;28;20426;-85
2022/03/26 13:24:31;;;;;;;32.20;29.70;;;;;;;;;;4975870;28;20442;-90
2022/03/26 13:27:02;;;;;;;33.33;30.80;;;;;;;;;;4958796;28;20417;-90
2022/03/26 13:29:30;;;;;;;26.53;24.63;;;;;;;;;;4975649;28;20478;-92
2022/03/26 13:32:00;;;;;;;34.17;31.27;;;;;;;;;;4976545;28;20441;-91
2022/03/26 13:34:29;;;;;;;33.23;30.63;;;;;;;;;;4974879;28;20467;-85
2022/03/26 13:36:57;;;;;;;34.93;31.80;;;;;;;;;;4974513;28;20458;-88
2022/03/26 13:39:30;;;;;;;33.07;30.37;;;;;;;;;;4972569;28;20478;-86
2022/03/26 13:41:57;;;;;;;33.43;30.83;;;;;;;;;;4957153;28;20530;-84
2022/03/26 13:44:26;;;;;;;33.03;30.60;;;;;;;;;;4974689;28;20442;-79
2022/03/26 13:46:53;;;;;;;34.53;31.73;;;;;;;;;;4974276;28;20451;-87
2022/03/26 13:49:29;;;;;;;31.53;29.23;;;;;;;;;;4974231;28;20490;-83
2022/03/26 13:51:57;;;;;;;32.77;30.27;;;;;;;;;;4978129;28;20446;-81
2022/03/26 13:54:32;;;;;;;33.60;30.93;;;;;;;;;;4978431;28;20467;-83
2022/03/26 13:56:59;;;;;;;33.30;30.70;;;;;;;;;;4979631;28;20454;-88
2022/03/26 13:59:27;;;;;;;32.60;30.27;;;;;;;;;;4980762;28;20494;-91
2022/03/26 14:01:56;;;;;;;34.43;31.60;;;;;;;;;;4981546;28;20450;-90
2022/03/26 14:04:24;;;;;;;32.77;30.10;;;;;;;;;;4980510;28;20929;-90
2022/03/26 14:06:53;;;;;;;32.37;29.83;;;;;;;;;;4979989;28;20416;-91
2022/03/26 14:09:21;;;;;;;32.40;29.50;;;;;;;;;;4980678;28;20446;-90
2022/03/26 14:11:49;;;;;;;32.63;30.13;;;;;;;;;;4979315;28;20446;-91
2022/03/26 14:14:16;;;;;;;33.90;31.20;;;;;;;;;;4980537;28;20433;-89
2022/03/26 14:16:44;;;;;;;35.57;32.87;;;;;;;;;;4980095;28;20413;-88
2022/03/26 14:19:11;;;;;;;33.90;30.90;;;;;;;;;;4979498;28;20450;-86
2022/03/26 14:21:38;;;;;;;34.17;31.27;;;;;;;;;;4980701;28;20441;-86
2022/03/26 14:24:08;;;;;;;35.97;32.87;;;;;;;;;;4979825;28;20458;-91
2022/03/26 14:26:35;;;;;;;34.90;32.07;;;;;;;;;;4982255;28;20422;-94
2022/03/26 14:29:03;;;;;;;37.30;33.97;;;;;;;;;;4964172;28;20421;-96
2022/03/26 14:31:31;;;;;;;35.60;32.50;;;;;;;;;;4981694;28;20837;-93